Time;durP1;ratioP1;P1;durP2;ratioP2;P2;SDS_P1;SDS_P2;PMS_P1;PMS_P2;Temp;Humidity;BMP_temperature;BMP_pressure;BME280_temperature;BME280_humidity;BME280_pressure;Samples;Min_cycle;Max_cycle;Signal;HPM_P1;HPM_P2
2021/03/04 00:00:34;;;;;;;78.60;35.78;;;7.40;96.20;;;;;;5057971;28;20376;-89
2021/03/04 00:03:02;;;;;;;65.93;29.95;;;7.40;96.30;;;;;;5065135;28;20020;-88
2021/03/04 00:05:27;;;;;;;75.28;33.92;;;7.40;96.30;;;;;;5057662;28;20037;-89
2021/03/04 00:07:53;;;;;;;95.45;41.95;;;7.30;96.40;;;;;;5059165;28;20013;-89
2021/03/04 00:10:20;;;;;;;83.50;38.60;;;7.30;96.60;;;;;;5065206;28;20372;-88
2021/03/04 00:12:47;;;;;;;100.05;42.42;;;7.30;96.70;;;;;;5059281;28;20021;-88
2021/03/04 00:15:15;;;;;;;106.05;43.00;;;7.30;96.80;;;;;;5061616;28;20484;-89
2021/03/04 00:17:41;;;;;;;88.53;40.72;;;7.20;96.90;;;;;;5064939;28;20472;-89
2021/03/04 00:20:12;;;;;;;92.00;40.75;;;7.20;97.10;;;;;;5058114;28;20052;-89
2021/03/04 00:22:38;;;;;;;106.70;46.63;;;7.20;97.10;;;;;;5066001;28;20021;-88
2021/03/04 00:25:04;;;;;;;101.93;45.65;;;7.30;97.00;;;;;;5067629;28;20021;-89
2021/03/04 00:27:30;;;;;;;108.25;45.35;;;7.30;96.90;;;;;;5062527;28;20024;-89
2021/03/04 00:29:56;;;;;;;94.55;42.55;;;7.20;96.90;;;;;;5059117;28;20518;-88
2021/03/04 00:32:21;;;;;;;78.22;36.08;;;7.20;97.00;;;;;;5061995;28;20074;-89
2021/03/04 00:34:47;;;;;;;81.85;35.45;;;7.20;97.00;;;;;;5065322;28;20021;-89
2021/03/04 00:37:13;;;;;;;75.82;34.03;;;7.20;97.00;;;;;;5075338;28;20036;-89
2021/03/04 00:39:38;;;;;;;92.70;42.42;;;7.30;97.00;;;;;;5066110;28;20020;-89
2021/03/04 00:42:05;;;;;;;85.47;40.38;;;7.30;96.80;;;;;;5060640;28;20421;-89
2021/03/04 00:44:30;;;;;;;90.13;40.42;;;7.30;96.80;;;;;;5065686;28;20028;-89
2021/03/04 00:46:56;;;;;;;87.78;41.80;;;7.30;96.90;;;;;;5063648;28;20032;-88
2021/03/04 00:49:21;;;;;;;94.35;44.17;;;7.30;96.80;;;;;;5065862;28;20028;-89
2021/03/04 00:51:47;;;;;;;99.40;43.97;;;7.20;97.00;;;;;;5064177;28;20491;-89
2021/03/04 00:54:12;;;;;;;87.05;41.65;;;7.20;97.00;;;;;;5063354;28;20388;-88
2021/03/04 00:56:38;;;;;;;78.18;38.85;;;7.30;97.00;;;;;;5065552;28;20032;-88
2021/03/04 00:59:03;;;;;;;85.43;39.63;;;7.20;97.00;;;;;;5067256;28;20479;-88
2021/03/04 01:01:29;;;;;;;73.68;33.72;;;7.20;97.00;;;;;;5068522;28;20494;-89
2021/03/04 01:03:55;;;;;;;74.65;35.45;;;7.20;97.00;;;;;;5066001;28;20083;-88
2021/03/04 01:06:20;;;;;;;77.32;34.35;;;7.10;97.10;;;;;;5061649;28;20028;-88
2021/03/04 01:08:47;;;;;;;76.95;36.08;;;7.10;97.30;;;;;;5061173;28;20447;-89
2021/03/04 01:11:14;;;;;;;79.13;36.70;;;7.10;97.40;;;;;;5064911;28;20013;-88
2021/03/04 01:13:40;;;;;;;76.53;35.60;;;7.00;97.50;;;;;;5068727;28;20024;-89
2021/03/04 01:16:06;;;;;;;72.88;35.15;;;7.00;97.50;;;;;;5074440;28;20020;-88
2021/03/04 01:18:32;;;;;;;71.55;33.53;;;7.10;97.50;;;;;;5067584;28;20095;-89
2021/03/04 01:20:57;;;;;;;76.55;35.95;;;7.10;97.30;;;;;;5069774;28;20543;-89
2021/03/04 01:23:23;;;;;;;70.25;33.33;;;7.10;97.40;;;;;;5064678;28;20025;-89
2021/03/04 01:25:48;;;;;;;72.13;33.40;;;7.10;97.40;;;;;;5060708;28;20028;-89
2021/03/04 01:28:14;;;;;;;68.43;31.25;;;7.10;97.50;;;;;;5064033;28;20036;-88
2021/03/04 01:30:40;;;;;;;79.72;37.60;;;7.10;97.50;;;;;;5060632;28;20087;-89
2021/03/04 01:33:06;;;;;;;84.22;38.72;;;7.10;97.50;;;;;;5064663;28;20020;-88
2021/03/04 01:35:31;;;;;;;80.25;36.58;;;7.00;97.60;;;;;;5068847;28;20501;-89
2021/03/04 01:37:57;;;;;;;82.50;40.05;;;7.00;97.60;;;;;;5062676;28;20024;-88
2021/03/04 01:40:23;;;;;;;79.50;35.95;;;7.00;97.80;;;;;;5067363;28;20472;-89
2021/03/04 01:42:50;;;;;;;77.40;36.35;;;6.90;97.80;;;;;;5060336;28;20380;-89
2021/03/04 01:45:17;;;;;;;83.07;37.33;;;7.00;97.80;;;;;;5056438;28;20025;-89
2021/03/04 01:47:49;;;;;;;82.13;38.63;;;7.00;97.80;;;;;;5063775;28;20025;-88
2021/03/04 01:50:16;;;;;;;84.13;38.72;;;7.00;97.70;;;;;;5060758;28;20029;-88
2021/03/04 01:52:43;;;;;;;86.78;40.10;;;6.90;97.70;;;;;;5061695;28;20013;-90
2021/03/04 01:55:09;;;;;;;87.05;38.40;;;6.80;97.90;;;;;;5064369;28;20021;-88
2021/03/04 01:57:37;;;;;;;81.50;38.78;;;6.90;98.10;;;;;;5062402;28;20070;-89
2021/03/04 02:00:05;;;;;;;80.45;37.03;;;6.90;98.00;;;;;;5068485;28;20025;-89
2021/03/04 02:02:30;;;;;;;88.63;38.38;;;6.90;97.90;;;;;;5068702;28;20052;-88
2021/03/04 02:04:56;;;;;;;65.55;31.17;;;6.90;98.00;;;;;;5068838;28;20067;-89
2021/03/04 02:07:39;;;;;;;81.18;37.47;;;6.90;98.00;;;;;;5063650;28;20025;-89
2021/03/04 02:10:08;;;;;;;91.65;41.22;;;6.90;97.90;;;;;;5069024;28;20505;-88
2021/03/04 02:12:43;;;;;;;88.30;39.50;;;6.80;98.10;;;;;;5075291;28;20028;-88
2021/03/04 02:15:14;;;;;;;103.50;44.58;;;6.80;98.40;;;;;;5063765;28;20028;-89
2021/03/04 02:17:46;;;;;;;95.00;42.83;;;6.70;98.40;;;;;;5061196;28;20104;-89
2021/03/04 02:20:35;;;;;;;84.80;35.13;;;6.70;98.60;;;;;;5070281;28;20036;-89
2021/03/04 02:23:16;;;;;;;82.65;38.42;;;6.80;98.50;;;;;;5062206;28;20047;-88
2021/03/04 02:26:12;;;;;;;91.13;40.60;;;6.80;98.40;;;;;;5058720;28;20032;-89
2021/03/04 02:28:38;;;;;;;81.72;35.38;;;6.80;98.50;;;;;;5074600;28;20044;-88
2021/03/04 02:31:08;;;;;;;73.40;34.33;;;6.70;98.60;;;;;;5069453;28;20107;-89
2021/03/04 02:33:34;;;;;;;80.27;34.50;;;6.80;98.50;;;;;;5059046;28;20017;-88
2021/03/04 02:36:01;;;;;;;76.18;35.35;;;6.80;98.60;;;;;;5068470;28;20048;-89
2021/03/04 02:38:28;;;;;;;73.95;34.20;;;6.70;98.70;;;;;;5061881;28;20021;-89
2021/03/04 02:40:55;;;;;;;92.60;42.08;;;6.70;98.80;;;;;;5067608;28;20032;-89
2021/03/04 02:43:24;;;;;;;76.90;36.17;;;6.60;98.90;;;;;;5058616;28;20108;-89
2021/03/04 02:45:51;;;;;;;63.90;33.45;;;6.50;99.20;;;;;;5064509;28;20021;-89
2021/03/04 02:48:19;;;;;;;66.50;32.67;;;6.50;99.30;;;;;;5059913;28;20033;-89
2021/03/04 02:50:47;;;;;;;72.35;35.90;;;6.60;99.20;;;;;;5066032;28;20062;-89
2021/03/04 02:53:13;;;;;;;72.82;35.00;;;6.60;99.10;;;;;;5056380;28;20021;-88
2021/03/04 02:55:40;;;;;;;72.07;33.42;;;6.60;99.10;;;;;;5055848;28;20021;-88
2021/03/04 02:58:11;;;;;;;61.22;30.25;;;6.50;99.10;;;;;;5067777;28;20090;-89
2021/03/04 03:00:37;;;;;;;60.22;28.85;;;6.50;99.20;;;;;;5061225;28;20032;-88
2021/03/04 03:03:07;;;;;;;65.78;31.63;;;6.50;99.20;;;;;;5064257;28;20022;-89
2021/03/04 03:05:34;;;;;;;68.65;33.55;;;6.40;99.20;;;;;;5065661;28;20020;-89
2021/03/04 03:08:01;;;;;;;64.55;31.40;;;6.40;99.40;;;;;;5069227;28;20027;-89
2021/03/04 03:10:27;;;;;;;63.65;31.33;;;6.40;99.40;;;;;;5063398;28;20028;-88
2021/03/04 03:12:57;;;;;;;61.35;29.38;;;6.40;99.30;;;;;;5058441;28;20021;-89
2021/03/04 03:15:25;;;;;;;64.43;29.33;;;6.40;99.30;;;;;;5059253;28;20013;-89
2021/03/04 03:17:51;;;;;;;59.78;27.83;;;6.40;99.30;;;;;;5058494;28;20116;-88
2021/03/04 03:20:19;;;;;;;55.13;27.65;;;6.40;99.30;;;;;;5064895;28;20036;-89
2021/03/04 03:22:46;;;;;;;56.40;27.85;;;6.40;99.30;;;;;;5058550;28;20025;-90
2021/03/04 03:25:13;;;;;;;57.28;29.13;;;6.40;99.20;;;;;;5063237;28;20025;-88
2021/03/04 03:27:40;;;;;;;63.13;28.48;;;6.40;99.30;;;;;;5060965;28;20025;-88
2021/03/04 03:30:08;;;;;;;58.88;28.88;;;6.30;99.40;;;;;;5064145;28;20095;-89
2021/03/04 03:32:35;;;;;;;61.45;28.00;;;6.30;99.40;;;;;;5068490;28;20016;-89
2021/03/04 03:35:05;;;;;;;63.50;29.35;;;6.40;99.40;;;;;;5060588;28;20101;-89
2021/03/04 03:37:31;;;;;;;63.83;31.45;;;6.50;99.20;;;;;;5065435;28;20410;-89
2021/03/04 03:39:58;;;;;;;58.40;28.58;;;6.40;99.10;;;;;;5061624;28;20522;-90
2021/03/04 03:42:24;;;;;;;59.65;28.98;;;6.40;98.90;;;;;;5070902;28;20025;-89
2021/03/04 03:44:52;;;;;;;58.90;27.23;;;6.40;98.90;;;;;;5067104;28;20020;-89
2021/03/04 03:47:18;;;;;;;55.33;26.52;;;6.40;98.90;;;;;;5058677;28;20427;-88
2021/03/04 03:49:45;;;;;;;57.58;28.15;;;6.30;99.00;;;;;;5059942;28;20109;-88
2021/03/04 03:52:11;;;;;;;58.25;27.70;;;6.30;99.20;;;;;;5059710;28;20075;-88
2021/03/04 03:54:38;;;;;;;54.63;27.08;;;6.30;99.30;;;;;;5057291;28;20028;-89
2021/03/04 03:57:05;;;;;;;51.05;24.40;;;6.30;99.40;;;;;;5062933;28;20076;-89
2021/03/04 03:59:32;;;;;;;55.80;26.58;;;6.30;99.40;;;;;;5069564;28;20021;-89
2021/03/04 04:01:59;;;;;;;55.45;25.00;;;6.30;99.30;;;;;;5065354;28;20036;-89
2021/03/04 04:04:24;;;;;;;53.28;25.83;;;6.30;99.30;;;;;;5058629;28;20028;-89
2021/03/04 04:06:52;;;;;;;52.15;25.17;;;6.30;99.20;;;;;;5064504;28;20480;-89
2021/03/04 04:09:18;;;;;;;62.05;27.23;;;6.30;99.10;;;;;;5059708;28;20028;-89
2021/03/04 04:11:43;;;;;;;53.30;24.55;;;6.30;99.20;;;;;;5054909;28;20024;-89
2021/03/04 04:14:09;;;;;;;54.03;23.85;;;6.30;99.30;;;;;;5061159;28;20025;-88
2021/03/04 04:16:35;;;;;;;54.67;24.45;;;6.30;99.10;;;;;;5062414;28;20357;-88
2021/03/04 04:19:02;;;;;;;54.50;24.25;;;6.40;99.00;;;;;;5067939;28;20071;-88
2021/03/04 04:21:28;;;;;;;52.42;23.05;;;6.30;99.10;;;;;;5052774;28;20107;-89
2021/03/04 04:23:54;;;;;;;54.47;22.45;;;6.30;99.20;;;;;;5063401;28;20056;-89
2021/03/04 04:26:20;;;;;;;52.20;22.45;;;6.40;99.10;;;;;;5069744;28;20028;-88
2021/03/04 04:28:45;;;;;;;55.10;24.23;;;6.30;99.10;;;;;;5056778;28;20026;-89
2021/03/04 04:31:26;;;;;;;71.28;31.13;;;6.30;99.20;;;;;;5060845;28;20118;-89
2021/03/04 04:33:52;;;;;;;71.20;31.13;;;6.30;99.10;;;;;;5058877;28;20075;-89
2021/03/04 04:36:17;;;;;;;68.78;30.17;;;6.10;99.30;;;;;;5071306;28;20028;-89
2021/03/04 04:38:43;;;;;;;65.60;29.63;;;6.10;99.40;;;;;;5061971;28;20024;-89
2021/03/04 04:41:08;;;;;;;68.63;31.90;;;6.00;99.50;;;;;;5065337;28;20025;-88
2021/03/04 04:43:34;;;;;;;63.28;28.17;;;6.00;99.70;;;;;;5061891;28;20079;-88
2021/03/04 04:45:59;;;;;;;60.38;27.05;;;6.00;99.70;;;;;;5061908;28;20029;-88
2021/03/04 04:48:25;;;;;;;55.42;24.90;;;6.00;99.70;;;;;;5064822;28;20032;-89
2021/03/04 04:50:50;;;;;;;54.28;24.02;;;6.00;99.70;;;;;;5061776;28;20028;-88
2021/03/04 04:53:16;;;;;;;47.17;20.98;;;6.10;99.70;;;;;;5060148;28;20021;-88
2021/03/04 04:55:41;;;;;;;53.42;22.52;;;6.20;99.50;;;;;;5059815;28;20018;-89
2021/03/04 04:58:07;;;;;;;55.45;24.80;;;6.20;99.40;;;;;;5063402;28;20519;-88
2021/03/04 05:00:32;;;;;;;55.13;25.08;;;6.20;99.30;;;;;;5062612;28;20021;-89
2021/03/04 05:02:58;;;;;;;46.85;22.00;;;6.20;99.70;;;;;;5059309;28;20029;-89
2021/03/04 05:05:23;;;;;;;47.20;21.75;;;6.10;99.40;;;;;;5059773;28;20021;-88
2021/03/04 05:07:49;;;;;;;43.10;19.40;;;6.20;99.50;;;;;;5061048;28;20031;-89
2021/03/04 05:10:15;;;;;;;44.47;20.70;;;6.20;99.40;;;;;;5063066;28;20032;-88
2021/03/04 05:12:40;;;;;;;52.72;23.83;;;6.20;99.40;;;;;;5062660;28;20020;-89
2021/03/04 05:15:11;;;;;;;54.25;25.67;;;6.20;99.40;;;;;;5064957;28;20012;-88
2021/03/04 05:17:37;;;;;;;53.38;24.23;;;6.20;99.40;;;;;;5061929;28;20108;-88
2021/03/04 05:20:05;;;;;;;47.70;22.85;;;6.10;99.30;;;;;;5063178;28;20052;-89
2021/03/04 05:22:31;;;;;;;52.45;23.13;;;6.10;99.40;;;;;;5059780;28;20087;-88
2021/03/04 05:24:57;;;;;;;54.72;27.15;;;6.10;99.40;;;;;;5063178;28;20031;-88
2021/03/04 05:27:23;;;;;;;57.85;26.45;;;6.00;99.50;;;;;;5066259;28;20048;-89
2021/03/04 05:29:49;;;;;;;49.55;24.58;;;5.90;99.70;;;;;;5072509;28;20468;-89
2021/03/04 05:32:17;;;;;;;52.50;23.88;;;6.00;99.80;;;;;;5055978;28;20159;-88
2021/03/04 05:34:43;;;;;;;57.05;25.98;;;5.90;99.80;;;;;;5068573;28;20020;-88
2021/03/04 05:37:08;;;;;;;66.20;29.95;;;5.90;99.90;;;;;;5069811;28;20497;-88
2021/03/04 05:39:34;;;;;;;55.70;25.05;;;5.80;99.90;;;;;;5069308;28;20025;-88
2021/03/04 05:42:03;;;;;;;49.25;23.73;;;5.80;99.90;;;;;;5063873;28;20439;-88
2021/03/04 05:44:30;;;;;;;58.28;27.00;;;5.80;99.90;;;;;;5065953;28;20688;-88
2021/03/04 05:46:56;;;;;;;51.97;24.35;;;5.80;99.90;;;;;;5059326;28;20025;-88
2021/03/04 05:49:23;;;;;;;48.65;21.65;;;5.80;99.90;;;;;;5065213;28;20044;-89
2021/03/04 05:51:54;;;;;;;44.58;21.40;;;5.90;99.90;;;;;;5075238;28;20027;-88
2021/03/04 05:54:21;;;;;;;37.38;18.15;;;6.00;99.90;;;;;;5068193;28;20041;-89
2021/03/04 05:56:47;;;;;;;52.25;23.05;;;6.00;99.90;;;;;;5061208;28;20218;-88
2021/03/04 05:59:13;;;;;;;56.88;24.73;;;5.90;99.90;;;;;;5063875;28;20543;-89
2021/03/04 06:01:40;;;;;;;48.67;22.92;;;5.90;99.90;;;;;;5067437;28;20035;-89
2021/03/04 06:04:06;;;;;;;56.55;23.50;;;6.00;99.90;;;;;;5065432;28;20025;-89
2021/03/04 06:06:31;;;;;;;56.20;25.13;;;5.90;99.90;;;;;;5065626;28;20074;-89
2021/03/04 06:08:57;;;;;;;54.45;24.38;;;5.90;99.90;;;;;;5059650;28;20361;-89
2021/03/04 06:11:23;;;;;;;48.08;23.48;;;5.90;99.90;;;;;;5056437;28;20013;-89
2021/03/04 06:13:48;;;;;;;46.15;21.90;;;5.80;99.90;;;;;;5070527;28;20096;-89
2021/03/04 06:16:14;;;;;;;50.42;23.20;;;5.90;99.90;;;;;;5059474;28;20024;-89
2021/03/04 06:18:42;;;;;;;53.72;22.65;;;5.90;99.90;;;;;;5062277;28;20040;-87
2021/03/04 06:21:24;;;;;;;48.92;22.15;;;5.90;99.90;;;;;;5065320;28;20065;-88
2021/03/04 06:23:51;;;;;;;41.95;21.80;;;6.00;99.90;;;;;;5054212;28;20036;-88
2021/03/04 06:26:36;;;;;;;49.13;22.83;;;5.90;99.90;;;;;;5062466;28;20024;-88
2021/03/04 06:29:18;;;;;;;52.47;24.42;;;5.90;99.90;;;;;;5071497;28;20486;-88
2021/03/04 06:31:46;;;;;;;48.60;23.67;;;5.90;99.90;;;;;;5054260;28;20137;-88
2021/03/04 06:34:20;;;;;;;53.13;24.08;;;5.90;99.90;;;;;;5054410;28;20025;-88
2021/03/04 06:37:06;;;;;;;55.95;24.63;;;5.90;99.90;;;;;;5052980;28;20111;-88
2021/03/04 06:39:43;;;;;;;52.65;23.08;;;5.90;99.90;;;;;;5058188;28;20024;-87
2021/03/04 06:42:10;;;;;;;55.03;25.40;;;5.90;99.90;;;;;;5080233;28;20028;-88
2021/03/04 06:44:47;;;;;;;53.65;23.38;;;5.90;99.90;;;;;;5084149;28;20476;-87
2021/03/04 06:47:23;;;;;;;48.35;20.98;;;5.90;99.90;;;;;;5053358;28;20029;-88
2021/03/04 06:49:49;;;;;;;48.08;22.05;;;5.90;99.90;;;;;;5054410;28;20094;-88
2021/03/04 06:52:47;;;;;;;44.13;20.60;;;5.90;99.90;;;;;;5053156;28;20495;-87
2021/03/04 06:55:14;;;;;;;47.67;21.10;;;6.00;99.90;;;;;;5012838;28;20056;-87
2021/03/04 06:57:40;;;;;;;46.85;21.40;;;5.90;99.90;;;;;;5073911;28;20131;-87
2021/03/04 07:00:17;;;;;;;42.05;17.77;;;5.90;99.90;;;;;;5073704;28;20031;-87
2021/03/04 07:02:54;;;;;;;44.10;19.08;;;6.00;99.90;;;;;;5072745;28;20124;-87
2021/03/04 07:05:21;;;;;;;39.58;17.40;;;5.90;99.90;;;;;;5073726;28;20113;-88
2021/03/04 07:07:52;;;;;;;56.17;23.85;;;5.90;99.90;;;;;;5072592;28;20532;-88
2021/03/04 07:10:18;;;;;;;54.33;23.95;;;5.90;99.90;;;;;;5073752;28;20039;-87
2021/03/04 07:12:46;;;;;;;55.90;23.88;;;5.90;99.90;;;;;;5081715;28;20105;-89
2021/03/04 07:15:13;;;;;;;53.38;22.63;;;5.90;99.90;;;;;;5086997;28;20396;-86
2021/03/04 07:17:40;;;;;;;51.50;24.05;;;5.90;99.90;;;;;;5072125;28;20123;-90
2021/03/04 07:20:11;;;;;;;60.72;26.77;;;5.90;99.90;;;;;;5072739;28;20020;-86
2021/03/04 07:22:38;;;;;;;61.10;26.73;;;5.90;99.90;;;;;;5073600;28;20029;-88
2021/03/04 07:25:04;;;;;;;55.88;24.77;;;5.90;99.90;;;;;;5071252;28;20035;-87
2021/03/04 07:27:30;;;;;;;64.20;27.40;;;5.90;99.90;;;;;;5067888;28;20025;-87
2021/03/04 07:29:55;;;;;;;61.00;26.83;;;5.90;99.90;;;;;;5066890;28;20480;-87
2021/03/04 07:32:22;;;;;;;63.55;28.60;;;5.80;99.90;;;;;;5071304;28;20021;-87
2021/03/04 07:34:48;;;;;;;56.70;26.58;;;5.70;99.90;;;;;;5071700;28;20103;-88
2021/03/04 07:37:17;;;;;;;55.97;26.30;;;5.70;99.90;;;;;;5105726;28;20048;-87
2021/03/04 07:39:42;;;;;;;60.58;26.70;;;5.70;99.90;;;;;;5107585;28;20060;-88
2021/03/04 07:42:19;;;;;;;55.88;25.90;;;5.70;99.90;;;;;;5092196;28;20032;-88
2021/03/04 07:44:45;;;;;;;63.92;27.88;;;5.70;99.90;;;;;;5086056;28;20020;-87
2021/03/04 07:47:11;;;;;;;63.63;26.60;;;5.70;99.90;;;;;;5083844;28;20159;-87
2021/03/04 07:49:45;;;;;;;58.08;25.75;;;5.60;99.90;;;;;;5074387;28;20103;-87
2021/03/04 07:52:11;;;;;;;53.92;24.58;;;5.70;99.90;;;;;;5073085;28;20540;-87
2021/03/04 07:54:38;;;;;;;64.40;27.30;;;5.70;99.90;;;;;;5079564;28;20032;-89
2021/03/04 07:57:14;;;;;;;69.93;28.40;;;5.80;99.90;;;;;;5091110;28;20044;-90
2021/03/04 08:00:00;;;;;;;72.65;31.58;;;5.70;99.90;;;;;;5086254;28;20093;-89
2021/03/04 08:02:33;;;;;;;69.47;28.67;;;5.80;99.90;;;;;;5064140;28;20020;-90
2021/03/04 08:05:30;;;;;;;66.00;28.00;;;5.80;99.90;;;;;;5079413;28;20532;-90
2021/03/04 08:07:56;;;;;;;61.00;25.17;;;5.80;99.90;;;;;;5078831;28;20033;-89
2021/03/04 08:10:25;;;;;;;64.72;27.10;;;5.70;99.90;;;;;;5071595;28;20502;-89
2021/03/04 08:12:51;;;;;;;59.60;25.43;;;5.70;99.90;;;;;;5071617;28;20586;-89
2021/03/04 08:15:30;;;;;;;67.70;28.35;;;5.80;99.90;;;;;;5071831;28;20024;-90
2021/03/04 08:17:58;;;;;;;68.28;29.38;;;5.70;99.90;;;;;;5073296;28;20031;-89
2021/03/04 08:20:24;;;;;;;75.93;32.42;;;5.70;99.90;;;;;;5060435;28;20143;-87
2021/03/04 08:22:49;;;;;;;59.88;25.60;;;5.70;99.90;;;;;;5054653;28;20028;-86
2021/03/04 08:25:21;;;;;;;63.50;27.05;;;5.70;99.90;;;;;;5079899;28;20109;-87
2021/03/04 08:27:47;;;;;;;63.45;26.55;;;5.80;99.90;;;;;;5073016;28;20043;-86
2021/03/04 08:30:13;;;;;;;65.22;28.00;;;5.70;99.90;;;;;;5071414;28;20055;-86
2021/03/04 08:32:41;;;;;;;57.55;25.48;;;5.70;99.90;;;;;;5074075;28;20433;-86
2021/03/04 08:35:18;;;;;;;51.85;23.45;;;5.70;99.90;;;;;;5072608;28;20357;-84
2021/03/04 08:37:44;;;;;;;62.83;25.58;;;5.80;99.90;;;;;;5071260;28;20057;-86
2021/03/04 08:40:10;;;;;;;63.25;26.20;;;5.80;99.90;;;;;;5071300;28;20075;-85
2021/03/04 08:42:36;;;;;;;58.65;26.60;;;5.80;99.90;;;;;;5071514;28;20499;-86
2021/03/04 08:45:02;;;;;;;60.50;26.20;;;5.70;99.90;;;;;;5074969;28;20040;-86
2021/03/04 08:47:28;;;;;;;55.45;24.25;;;5.80;99.90;;;;;;5074986;28;20028;-86
2021/03/04 08:49:55;;;;;;;61.88;26.13;;;5.80;99.90;;;;;;5076540;28;20032;-85
2021/03/04 08:52:24;;;;;;;68.88;29.13;;;5.80;99.90;;;;;;5075494;28;20020;-85
2021/03/04 08:54:52;;;;;;;70.72;30.15;;;5.80;99.90;;;;;;5076292;28;20107;-85
2021/03/04 08:57:22;;;;;;;66.07;29.00;;;5.80;99.90;;;;;;5076258;28;20071;-86
2021/03/04 08:59:48;;;;;;;73.13;30.77;;;5.80;99.90;;;;;;5075174;28;20552;-85
2021/03/04 09:02:15;;;;;;;63.92;26.85;;;5.80;99.90;;;;;;5075163;28;20048;-86
2021/03/04 09:04:44;;;;;;;59.55;25.63;;;5.80;99.90;;;;;;5076690;28;20025;-86
2021/03/04 09:07:10;;;;;;;55.42;23.92;;;5.90;99.90;;;;;;5074669;28;20575;-86
2021/03/04 09:09:36;;;;;;;58.13;22.58;;;5.90;99.90;;;;;;5075917;28;20017;-86
2021/03/04 09:12:02;;;;;;;58.55;25.38;;;5.90;99.90;;;;;;5074680;28;20025;-86
2021/03/04 09:14:30;;;;;;;61.42;26.02;;;5.90;99.90;;;;;;5074721;28;20024;-86
2021/03/04 09:16:57;;;;;;;65.45;26.05;;;6.00;99.90;;;;;;5074644;28;20029;-85
2021/03/04 09:19:31;;;;;;;71.72;30.38;;;5.90;99.90;;;;;;5091592;28;20028;-87
2021/03/04 09:21:57;;;;;;;58.58;26.35;;;5.90;99.90;;;;;;5074847;28;20102;-86
2021/03/04 09:24:23;;;;;;;69.82;28.23;;;5.90;99.90;;;;;;5075676;28;20598;-86
2021/03/04 09:26:49;;;;;;;69.43;30.17;;;6.00;99.90;;;;;;5075637;28;20107;-86
2021/03/04 09:29:16;;;;;;;75.63;30.40;;;6.00;99.90;;;;;;5075929;28;20503;-86
2021/03/04 09:31:52;;;;;;;69.43;29.25;;;5.90;99.90;;;;;;5074060;28;20025;-85
2021/03/04 09:34:19;;;;;;;76.47;30.10;;;6.00;99.90;;;;;;5084469;28;20039;-86
2021/03/04 09:36:44;;;;;;;75.15;30.92;;;6.00;99.90;;;;;;5078582;28;20024;-86
2021/03/04 09:39:10;;;;;;;67.38;28.13;;;6.00;99.90;;;;;;5088076;28;20039;-84
2021/03/04 09:41:35;;;;;;;74.07;29.52;;;6.00;99.90;;;;;;5081770;28;20028;-85
2021/03/04 09:44:06;;;;;;;71.07;30.15;;;6.00;99.90;;;;;;5072710;28;20024;-86
2021/03/04 09:46:38;;;;;;;68.15;27.77;;;6.10;99.90;;;;;;5074514;28;20024;-87
2021/03/04 09:49:12;;;;;;;64.72;29.48;;;6.10;99.90;;;;;;5076693;28;20016;-84
2021/03/04 09:51:39;;;;;;;75.88;31.90;;;6.10;99.90;;;;;;5075793;28;20029;-87
2021/03/04 09:54:06;;;;;;;71.40;29.25;;;6.10;99.90;;;;;;5097354;28;20012;-86
2021/03/04 09:56:32;;;;;;;63.90;27.08;;;6.20;99.90;;;;;;5075233;28;20043;-86
2021/03/04 09:58:58;;;;;;;72.25;29.38;;;6.20;99.90;;;;;;5073485;28;20115;-86
2021/03/04 10:01:28;;;;;;;59.80;26.85;;;6.20;99.90;;;;;;5073828;28;20060;-87
2021/03/04 10:04:00;;;;;;;58.57;25.67;;;6.20;99.90;;;;;;5074049;28;20092;-86
2021/03/04 10:06:25;;;;;;;56.17;24.45;;;6.20;99.90;;;;;;5073986;28;20270;-86
2021/03/04 10:08:55;;;;;;;62.88;27.15;;;6.10;99.90;;;;;;5074120;28;20029;-86
2021/03/04 10:11:22;;;;;;;61.03;25.65;;;6.10;99.90;;;;;;5102461;28;20052;-86
2021/03/04 10:13:48;;;;;;;59.13;25.52;;;6.20;99.90;;;;;;5093969;28;20612;-86
2021/03/04 10:16:14;;;;;;;50.08;22.73;;;6.10;99.90;;;;;;5093754;28;20455;-86
2021/03/04 10:18:45;;;;;;;59.45;25.52;;;6.20;99.90;;;;;;5086656;28;20032;-85
2021/03/04 10:21:12;;;;;;;66.05;25.92;;;6.20;99.90;;;;;;5073879;28;20418;-86
2021/03/04 10:23:38;;;;;;;52.05;23.40;;;6.20;99.90;;;;;;5073478;28;20081;-82
2021/03/04 10:26:03;;;;;;;43.33;21.05;;;6.20;99.90;;;;;;5045069;28;20743;-84
2021/03/04 10:28:29;;;;;;;43.90;20.02;;;6.30;99.90;;;;;;5065048;28;20067;-85
2021/03/04 10:30:55;;;;;;;43.67;20.92;;;6.30;99.90;;;;;;5065856;28;20021;-85
2021/03/04 10:33:20;;;;;;;49.58;21.52;;;6.30;99.90;;;;;;5074326;28;20017;-85
2021/03/04 10:35:46;;;;;;;58.38;22.95;;;6.30;99.90;;;;;;5068256;28;20062;-85
2021/03/04 10:38:12;;;;;;;48.95;22.65;;;6.20;99.90;;;;;;5098508;28;20119;-85
2021/03/04 10:40:37;;;;;;;48.60;20.38;;;6.20;99.90;;;;;;5071180;28;20487;-87
2021/03/04 10:43:03;;;;;;;53.47;21.42;;;6.20;99.90;;;;;;5071677;28;20032;-88
2021/03/04 10:45:28;;;;;;;46.80;21.42;;;6.20;99.90;;;;;;5083279;28;20409;-87
2021/03/04 10:47:54;;;;;;;42.78;19.48;;;6.20;99.90;;;;;;5075113;28;20028;-87
2021/03/04 10:50:22;;;;;;;42.15;18.25;;;6.20;99.90;;;;;;5073592;28;20029;-90
2021/03/04 10:52:48;;;;;;;40.35;18.90;;;6.20;99.90;;;;;;5073844;28;20020;-91
2021/03/04 10:55:16;;;;;;;48.30;21.48;;;6.20;99.90;;;;;;5073723;28;20023;-91
2021/03/04 10:57:41;;;;;;;41.40;18.40;;;6.20;99.90;;;;;;5073523;28;20101;-88
2021/03/04 11:00:13;;;;;;;44.25;18.08;;;6.20;99.90;;;;;;5073818;28;20028;-91
2021/03/04 11:02:39;;;;;;;44.80;19.50;;;6.20;99.90;;;;;;5079176;28;20051;-91
2021/03/04 11:05:06;;;;;;;47.72;19.90;;;6.20;99.90;;;;;;5084229;28;20115;-90
2021/03/04 11:07:33;;;;;;;37.03;17.00;;;6.30;99.90;;;;;;5083481;28;20024;-91
2021/03/04 11:09:58;;;;;;;36.17;16.17;;;6.40;99.90;;;;;;5085403;28;20028;-91
2021/03/04 11:12:24;;;;;;;46.55;20.73;;;6.50;99.90;;;;;;5083238;28;20472;-91
2021/03/04 11:14:49;;;;;;;37.15;17.13;;;6.40;99.90;;;;;;5088963;28;20124;-91
2021/03/04 11:17:15;;;;;;;33.47;16.30;;;6.40;99.90;;;;;;5082607;28;20023;-91
2021/03/04 11:19:42;;;;;;;41.45;18.10;;;6.40;99.90;;;;;;5085886;28;20025;-91
2021/03/04 11:22:08;;;;;;;35.95;15.77;;;6.40;99.90;;;;;;5082343;28;20077;-91
2021/03/04 11:24:34;;;;;;;43.88;19.05;;;6.40;99.90;;;;;;5056982;28;20033;-90
2021/03/04 11:26:59;;;;;;;40.30;18.02;;;6.40;99.90;;;;;;5067769;28;20036;-91
2021/03/04 11:29:25;;;;;;;39.15;18.23;;;6.40;99.90;;;;;;5073189;28;20025;-89
2021/03/04 11:31:50;;;;;;;36.10;16.83;;;6.40;99.90;;;;;;5073069;28;20048;-90
2021/03/04 11:34:16;;;;;;;40.45;18.45;;;6.30;99.90;;;;;;5073140;28;20111;-93
2021/03/04 11:36:42;;;;;;;32.60;15.13;;;6.30;99.90;;;;;;5073336;28;20024;-92
2021/03/04 11:39:07;;;;;;;33.40;14.02;;;6.30;99.90;;;;;;5049027;28;20119;-90
2021/03/04 11:41:33;;;;;;;40.55;17.65;;;6.40;99.90;;;;;;5052754;28;20040;-92
2021/03/04 11:43:59;;;;;;;36.90;17.20;;;6.40;99.90;;;;;;5087876;28;20479;-93
2021/03/04 11:46:24;;;;;;;37.13;16.90;;;6.30;99.90;;;;;;5074434;28;20034;-93
2021/03/04 11:48:51;;;;;;;30.60;14.52;;;6.30;99.90;;;;;;5073024;28;20024;-93
2021/03/04 11:51:17;;;;;;;37.42;17.15;;;6.30;99.90;;;;;;5085949;28;20459;-93
2021/03/04 11:53:43;;;;;;;32.08;15.60;;;6.30;99.90;;;;;;5083979;28;20638;-92
2021/03/04 11:56:09;;;;;;;31.35;15.10;;;6.30;99.90;;;;;;5074096;28;20083;-92
2021/03/04 11:58:36;;;;;;;30.88;15.32;;;6.30;99.90;;;;;;5079796;28;20552;-94
2021/03/04 12:01:02;;;;;;;28.80;14.18;;;6.30;99.90;;;;;;5084578;28;20016;-93
2021/03/04 12:03:27;;;;;;;36.67;17.83;;;6.30;99.90;;;;;;5077817;28;20100;-93
2021/03/04 12:05:53;;;;;;;36.35;16.67;;;6.30;99.90;;;;;;5081485;28;20056;-92
2021/03/04 12:08:18;;;;;;;29.08;15.25;;;6.20;99.90;;;;;;5078587;28;20020;-93
2021/03/04 12:10:44;;;;;;;29.17;13.23;;;6.20;99.90;;;;;;5083847;28;20017;-94
2021/03/04 12:13:10;;;;;;;28.45;14.13;;;6.30;99.90;;;;;;5091791;28;20476;-93
2021/03/04 12:15:36;;;;;;;25.23;13.00;;;6.30;99.90;;;;;;5080853;28;20012;-93
2021/03/04 12:18:03;;;;;;;26.40;12.45;;;6.30;99.90;;;;;;5091383;28;20073;-93
2021/03/04 12:20:28;;;;;;;25.65;12.77;;;6.40;99.90;;;;;;5091121;28;20017;-92
2021/03/04 12:22:54;;;;;;;29.75;13.32;;;6.40;99.90;;;;;;5081929;28;20480;-90
2021/03/04 12:25:20;;;;;;;26.73;13.38;;;6.30;99.90;;;;;;5094198;28;20034;-93
2021/03/04 12:27:46;;;;;;;26.88;13.07;;;6.30;99.90;;;;;;5090686;28;20024;-93
2021/03/04 12:30:12;;;;;;;20.92;10.00;;;6.20;99.90;;;;;;5081908;28;20020;-93
2021/03/04 12:32:38;;;;;;;21.80;9.88;;;6.20;99.90;;;;;;5090069;28;20016;-89
2021/03/04 12:35:05;;;;;;;17.65;10.20;;;6.20;99.90;;;;;;5081937;28;20090;-91
2021/03/04 12:37:31;;;;;;;16.67;9.20;;;6.10;99.90;;;;;;5085315;28;20035;-93